RUK9605 EGAA-EGNX
Flight info
| Callsign | RUK9605 |
|---|---|
| Flight time | N/A |
| Altitude | 23000 |
| Route | LISBO L603 PEPOD Q38 MAKUX |
| Aircraft | B738/M-SDE2E3FGHIRWXY/LB1 |
Departure
| Time | 2026-05-06 19:22 |
|---|---|
| Airport | Belfast International Airport (EGAA) |
Arrival
| Time | N/A |
|---|---|
| Airport | East Midlands Airport (EGNX) |
| Time | Latitude | Longitude | Altitude | Speed | Heading |
|---|---|---|---|---|---|
| 2026-05-06 18:56 | 54.65913 | -6.21892 | 271 ft | 0 kts | 65° |
| 2026-05-06 19:16 | 54.65913 | -6.21893 | 261 ft | 2 kts | 65° |
| 2026-05-06 19:16 | 54.65903 | -6.21932 | 285 ft | 4 kts | 69° |
| 2026-05-06 19:17 | 54.65894 | -6.21976 | 271 ft | 4 kts | 78° |
| 2026-05-06 19:17 | 54.65893 | -6.22021 | 271 ft | 4 kts | 107° |
| 2026-05-06 19:17 | 54.65902 | -6.22046 | 271 ft | 0 kts | 155° |
| 2026-05-06 19:18 | 54.65901 | -6.22045 | 271 ft | 1 kts | 155° |
| 2026-05-06 19:19 | 54.65879 | -6.22027 | 271 ft | 8 kts | 156° |
| 2026-05-06 19:19 | 54.65819 | -6.22028 | 274 ft | 9 kts | 218° |
| 2026-05-06 19:19 | 54.65788 | -6.22123 | 273 ft | 9 kts | 250° |
| 2026-05-06 19:19 | 54.65773 | -6.22227 | 271 ft | 9 kts | 261° |
| 2026-05-06 19:20 | 54.65764 | -6.22346 | 271 ft | 12 kts | 264° |
| 2026-05-06 19:20 | 54.65751 | -6.22528 | 273 ft | 19 kts | 263° |
| 2026-05-06 19:20 | 54.65736 | -6.22770 | 273 ft | 21 kts | 257° |
| 2026-05-06 19:20 | 54.65674 | -6.22984 | 271 ft | 20 kts | 234° |
| 2026-05-06 19:21 | 54.65592 | -6.23178 | 271 ft | 19 kts | 235° |
| 2026-05-06 19:21 | 54.65502 | -6.23342 | 271 ft | 19 kts | 204° |
| 2026-05-06 19:21 | 54.65380 | -6.23407 | 271 ft | 18 kts | 173° |
| 2026-05-06 19:21 | 54.65307 | -6.23334 | 271 ft | 8 kts | 141° |
| 2026-05-06 19:22 | 54.65313 | -6.23196 | 273 ft | 18 kts | 66° |
| 2026-05-06 19:22 | 54.65478 | -6.22585 | 271 ft | 97 kts | 66° |
| 2026-05-06 19:22 | 54.65868 | -6.21169 | 318 ft | 159 kts | 66° |
| 2026-05-06 19:22 | 54.66390 | -6.19441 | 1115 ft | 162 kts | 67° |
| 2026-05-06 19:23 | 54.66950 | -6.17710 | 2064 ft | 168 kts | 65° |
| 2026-05-06 19:23 | 54.67344 | -6.15685 | 2552 ft | 192 kts | 98° |
| 2026-05-06 19:23 | 54.66738 | -6.13562 | 2840 ft | 213 kts | 140° |
| 2026-05-06 19:23 | 54.65530 | -6.12006 | 3444 ft | 222 kts | 146° |
| 2026-05-06 19:24 | 54.64235 | -6.10344 | 3818 ft | 245 kts | 144° |
| 2026-05-06 19:24 | 54.62862 | -6.08524 | 4708 ft | 251 kts | 144° |
| 2026-05-06 19:24 | 54.61472 | -6.06627 | 5627 ft | 258 kts | 144° |
| 2026-05-06 19:24 | 54.60054 | -6.04652 | 6532 ft | 267 kts | 142° |
| 2026-05-06 19:25 | 54.58601 | -6.02595 | 7431 ft | 272 kts | 142° |
| 2026-05-06 19:25 | 54.57125 | -6.00479 | 8314 ft | 279 kts | 143° |
| 2026-05-06 19:25 | 54.55614 | -5.98300 | 9153 ft | 287 kts | 143° |
| 2026-05-06 19:25 | 54.54072 | -5.96064 | 10047 ft | 292 kts | 143° |
| 2026-05-06 19:26 | 54.52480 | -5.93751 | 10596 ft | 311 kts | 142° |
| 2026-05-06 19:26 | 54.50760 | -5.91250 | 10889 ft | 334 kts | 142° |
| 2026-05-06 19:26 | 54.48958 | -5.88623 | 11619 ft | 342 kts | 142° |
| 2026-05-06 19:26 | 54.47148 | -5.85979 | 12453 ft | 348 kts | 142° |
| 2026-05-06 19:27 | 54.45295 | -5.83275 | 13398 ft | 350 kts | 142° |
| 2026-05-06 19:27 | 54.43422 | -5.80544 | 14248 ft | 356 kts | 142° |
| 2026-05-06 19:27 | 54.41517 | -5.77772 | 15063 ft | 361 kts | 142° |
| 2026-05-06 19:27 | 54.39591 | -5.74972 | 15921 ft | 365 kts | 142° |
| 2026-05-06 19:28 | 54.37635 | -5.72133 | 16775 ft | 370 kts | 142° |
| 2026-05-06 19:28 | 54.35653 | -5.69260 | 17593 ft | 375 kts | 142° |
| 2026-05-06 19:28 | 54.33645 | -5.66352 | 18406 ft | 381 kts | 142° |
| 2026-05-06 19:28 | 54.32295 | -5.64399 | 18869 ft | 384 kts | 142° |
| 2026-05-06 19:29 | 54.30244 | -5.61436 | 19583 ft | 389 kts | 142° |
| 2026-05-06 19:29 | 54.28160 | -5.58425 | 20285 ft | 394 kts | 140° |
| 2026-05-06 19:29 | 54.26219 | -5.55056 | 20960 ft | 400 kts | 129° |
| 2026-05-06 19:29 | 54.24568 | -5.51184 | 21664 ft | 405 kts | 125° |
| 2026-05-06 19:30 | 54.22951 | -5.47215 | 22423 ft | 407 kts | 125° |
| 2026-05-06 19:30 | 54.21307 | -5.43239 | 22941 ft | 412 kts | 126° |
| 2026-05-06 19:30 | 54.19631 | -5.39266 | 23007 ft | 411 kts | 126° |
| 2026-05-06 19:30 | 54.17980 | -5.35387 | 23009 ft | 406 kts | 126° |
| 2026-05-06 19:31 | 54.16329 | -5.31499 | 23020 ft | 404 kts | 126° |
| 2026-05-06 19:31 | 54.14679 | -5.27609 | 23029 ft | 404 kts | 126° |
| 2026-05-06 19:31 | 54.11379 | -5.19837 | 23017 ft | 405 kts | 126° |
| 2026-05-06 19:32 | 54.09724 | -5.15947 | 23021 ft | 404 kts | 126° |
| 2026-05-06 19:32 | 54.08066 | -5.12056 | 23020 ft | 404 kts | 126° |
| 2026-05-06 19:32 | 54.06408 | -5.08172 | 23019 ft | 404 kts | 126° |
| 2026-05-06 19:32 | 54.04751 | -5.04296 | 23019 ft | 404 kts | 126° |
| 2026-05-06 19:33 | 54.03094 | -5.00425 | 23020 ft | 404 kts | 126° |
| 2026-05-06 19:33 | 54.01457 | -4.96606 | 23019 ft | 404 kts | 126° |
| 2026-05-06 19:33 | 53.99801 | -4.92748 | 23019 ft | 404 kts | 126° |
| 2026-05-06 19:33 | 53.98140 | -4.88888 | 23019 ft | 403 kts | 126° |
| 2026-05-06 19:34 | 53.96513 | -4.85119 | 23005 ft | 389 kts | 126° |
| 2026-05-06 19:34 | 53.94939 | -4.81493 | 23003 ft | 374 kts | 127° |
| 2026-05-06 19:34 | 53.93423 | -4.78010 | 23001 ft | 360 kts | 127° |
| 2026-05-06 19:34 | 53.91962 | -4.74656 | 23003 ft | 347 kts | 127° |
| 2026-05-06 19:35 | 53.90554 | -4.71427 | 23006 ft | 334 kts | 127° |
| 2026-05-06 19:35 | 53.89200 | -4.68323 | 23001 ft | 321 kts | 127° |
| 2026-05-06 19:35 | 53.87894 | -4.65331 | 23001 ft | 310 kts | 127° |
| 2026-05-06 19:35 | 53.86626 | -4.62431 | 23005 ft | 302 kts | 127° |
| 2026-05-06 19:36 | 53.85374 | -4.59568 | 23020 ft | 304 kts | 127° |
| 2026-05-06 19:36 | 53.84098 | -4.56657 | 23037 ft | 311 kts | 127° |
| 2026-05-06 19:36 | 53.82801 | -4.53703 | 23036 ft | 314 kts | 127° |
| 2026-05-06 19:36 | 53.81500 | -4.50743 | 23023 ft | 312 kts | 127° |
| 2026-05-06 19:37 | 53.80224 | -4.47838 | 23015 ft | 310 kts | 127° |
| 2026-05-06 19:37 | 53.78938 | -4.44915 | 23015 ft | 309 kts | 127° |
| 2026-05-06 19:37 | 53.77658 | -4.42008 | 23016 ft | 307 kts | 127° |
| 2026-05-06 19:37 | 53.76386 | -4.39122 | 23017 ft | 306 kts | 127° |
| 2026-05-06 19:38 | 53.75115 | -4.36239 | 23017 ft | 306 kts | 127° |
| 2026-05-06 19:38 | 53.73842 | -4.33358 | 23021 ft | 305 kts | 127° |
| 2026-05-06 19:38 | 53.72571 | -4.30482 | 23022 ft | 306 kts | 127° |
| 2026-05-06 19:38 | 53.71300 | -4.27609 | 23022 ft | 306 kts | 127° |
| 2026-05-06 19:39 | 53.70020 | -4.24721 | 23023 ft | 307 kts | 127° |
| 2026-05-06 19:39 | 53.68737 | -4.21828 | 23023 ft | 308 kts | 127° |
| 2026-05-06 19:39 | 53.67452 | -4.18931 | 23023 ft | 309 kts | 127° |
| 2026-05-06 19:39 | 53.66164 | -4.16032 | 23017 ft | 310 kts | 128° |
| 2026-05-06 19:40 | 53.64868 | -4.13120 | 23014 ft | 311 kts | 128° |
| 2026-05-06 19:40 | 53.63566 | -4.10201 | 23017 ft | 311 kts | 128° |
| 2026-05-06 19:40 | 53.62279 | -4.07319 | 23019 ft | 312 kts | 128° |
| 2026-05-06 19:40 | 53.60958 | -4.04364 | 23017 ft | 312 kts | 128° |
| 2026-05-06 19:41 | 53.59665 | -4.01476 | 23018 ft | 312 kts | 128° |
| 2026-05-06 19:41 | 53.58358 | -3.98558 | 23015 ft | 312 kts | 128° |
| 2026-05-06 19:41 | 53.57047 | -3.95635 | 23014 ft | 312 kts | 128° |
| 2026-05-06 19:41 | 53.55740 | -3.92723 | 23015 ft | 312 kts | 128° |
| 2026-05-06 19:42 | 53.54430 | -3.89808 | 23014 ft | 311 kts | 128° |
| 2026-05-06 19:42 | 53.53123 | -3.86902 | 23014 ft | 311 kts | 128° |
| 2026-05-06 19:42 | 53.51819 | -3.84005 | 23015 ft | 310 kts | 128° |
| 2026-05-06 19:42 | 53.50518 | -3.81120 | 23015 ft | 310 kts | 128° |
| 2026-05-06 19:43 | 53.49216 | -3.78234 | 23015 ft | 309 kts | 128° |
| 2026-05-06 19:43 | 53.47915 | -3.75355 | 23011 ft | 309 kts | 128° |
| 2026-05-06 19:43 | 53.46618 | -3.72486 | 23011 ft | 309 kts | 128° |
| 2026-05-06 19:43 | 53.45318 | -3.69614 | 23014 ft | 309 kts | 128° |
| 2026-05-06 19:44 | 53.44037 | -3.66786 | 23015 ft | 309 kts | 128° |
| 2026-05-06 19:44 | 53.42735 | -3.63919 | 23013 ft | 309 kts | 128° |
| 2026-05-06 19:44 | 53.41433 | -3.61057 | 23013 ft | 309 kts | 129° |
| 2026-05-06 19:44 | 53.40071 | -3.58278 | 23018 ft | 308 kts | 132° |
| 2026-05-06 19:45 | 53.38656 | -3.55581 | 23014 ft | 308 kts | 133° |
| 2026-05-06 19:45 | 53.37228 | -3.52897 | 23011 ft | 308 kts | 133° |
| 2026-05-06 19:45 | 53.35800 | -3.50213 | 23010 ft | 308 kts | 133° |
| 2026-05-06 19:45 | 53.34379 | -3.47530 | 23012 ft | 308 kts | 133° |
| 2026-05-06 19:46 | 53.32954 | -3.44834 | 23012 ft | 308 kts | 133° |
| 2026-05-06 19:46 | 53.31534 | -3.42143 | 23016 ft | 309 kts | 133° |
| 2026-05-06 19:46 | 53.30112 | -3.39445 | 23019 ft | 309 kts | 133° |
| 2026-05-06 19:46 | 53.28713 | -3.36794 | 23014 ft | 309 kts | 133° |